Time;durP1;ratioP1;P1;durP2;ratioP2;P2;SDS_P1;SDS_P2;PMS_P1;PMS_P2;Temp;Humidity;BMP_temperature;BMP_pressure;BME280_temperature;BME280_humidity;BME280_pressure;Samples;Min_cycle;Max_cycle;Signal;HPM_P1;HPM_P2
2021/12/07 00:01:43;;;;;;;5.30;4.80;;;5.30;99.30;;;;;;10471971;28;20227;-82
2021/12/07 00:06:46;;;;;;;5.20;4.80;;;5.30;99.50;;;;;;10488302;28;20303;-81
2021/12/07 00:11:49;;;;;;;5.10;4.70;;;5.30;99.20;;;;;;10460772;28;20307;-82
2021/12/07 00:16:53;;;;;;;4.90;4.50;;;5.30;98.70;;;;;;10506674;28;20246;-81
2021/12/07 00:21:57;;;;;;;5.30;4.90;;;5.30;98.40;;;;;;10477302;28;20641;-82
2021/12/07 00:26:59;;;;;;;5.40;5.00;;;5.20;98.40;;;;;;10483888;28;20303;-82
2021/12/07 00:32:18;;;;;;;5.60;5.10;;;5.30;98.20;;;;;;10468706;28;20227;-81
2021/12/07 00:37:21;;;;;;;5.23;4.83;;;5.20;98.70;;;;;;10468987;28;20192;-81
2021/12/07 00:42:24;;;;;;;4.87;4.53;;;5.20;99.90;;;;;;10473691;28;20323;-82
2021/12/07 00:47:26;;;;;;;4.97;4.57;;;5.30;99.90;;;;;;10487370;28;20217;-81
2021/12/07 00:52:30;;;;;;;5.50;5.10;;;5.40;99.90;;;;;;10464642;28;20641;-82
2021/12/07 00:57:32;;;;;;;4.50;4.20;;;5.40;99.90;;;;;;10464251;28;20189;-82
2021/12/07 01:02:34;;;;;;;6.20;5.60;;;5.40;99.90;;;;;;10473452;28;20224;-82
2021/12/07 01:07:56;;;;;;;5.00;4.60;;;5.30;99.90;;;;;;10495179;28;20703;-82
2021/12/07 01:29:15;;;;;;;5.57;5.17;;;5.30;99.90;;;;;;10447371;28;20685;-82
2021/12/07 01:34:39;;;;;;;5.43;5.03;;;5.30;99.90;;;;;;10447504;28;20201;-82
2021/12/07 01:40:08;;;;;;;5.07;4.70;;;5.20;99.90;;;;;;10463037;28;20256;-81
2021/12/07 01:50:51;;;;;;;4.50;4.20;;;5.10;99.90;;;;;;10424021;28;20227;-82
2021/12/07 02:01:14;;;;;;;5.13;4.73;;;5.10;99.90;;;;;;10441002;28;20235;-82
2021/12/07 02:06:17;;;;;;;5.00;4.60;;;5.20;99.90;;;;;;10489835;28;20216;-82
2021/12/07 02:11:21;;;;;;;4.97;4.57;;;5.10;99.90;;;;;;10458546;28;20228;-82
2021/12/07 02:16:29;;;;;;;5.80;5.40;;;5.10;99.90;;;;;;10489182;28;20228;-82
2021/12/07 02:21:33;;;;;;;4.57;4.27;;;5.00;99.90;;;;;;10472279;28;20224;-82
2021/12/07 02:26:42;;;;;;;5.37;4.97;;;5.00;99.90;;;;;;10468357;28;20204;-82
2021/12/07 02:31:45;;;;;;;5.00;4.60;;;5.00;99.90;;;;;;10477832;28;20251;-81
2021/12/07 02:36:50;;;;;;;4.93;4.30;;;5.00;99.90;;;;;;10497499;28;20227;-81
2021/12/07 02:41:54;;;;;;;4.70;4.40;;;5.10;99.90;;;;;;10482259;28;20768;-83
2021/12/07 02:46:56;;;;;;;4.10;3.80;;;5.10;99.90;;;;;;10473479;28;20217;-82
2021/12/07 02:52:02;;;;;;;4.53;4.13;;;5.20;99.90;;;;;;10464525;28;20225;-82
2021/12/07 02:57:07;;;;;;;4.33;3.97;;;5.20;99.90;;;;;;10476493;28;20618;-82
2021/12/07 03:02:12;;;;;;;4.20;4.00;;;5.30;99.90;;;;;;10481192;28;20609;-82
2021/12/07 03:07:22;;;;;;;3.57;3.37;;;5.30;99.90;;;;;;10492737;28;20618;-82
2021/12/07 03:28:25;;;;;;;3.20;3.00;;;5.40;99.90;;;;;;10462369;28;20221;-81
2021/12/07 03:33:28;;;;;;;2.70;2.60;;;5.40;99.90;;;;;;10469610;28;20600;-82
2021/12/07 03:38:32;;;;;;;2.70;2.60;;;5.40;99.90;;;;;;10449068;28;20200;-83
2021/12/07 03:43:36;;;;;;;2.73;2.60;;;5.50;99.90;;;;;;10448447;28;20201;-82
2021/12/07 03:48:38;;;;;;;3.20;3.00;;;5.50;99.90;;;;;;10473951;28;20220;-82
2021/12/07 03:53:42;;;;;;;2.87;2.77;;;5.50;99.90;;;;;;10468892;28;20326;-83
2021/12/07 03:58:46;;;;;;;2.37;2.27;;;5.50;99.90;;;;;;10482054;28;20253;-82
2021/12/07 04:03:48;;;;;;;2.10;2.00;;;5.50;99.90;;;;;;10469740;28;20204;-82
2021/12/07 04:08:53;;;;;;;2.30;2.20;;;5.50;99.90;;;;;;10465867;28;20232;-82
2021/12/07 04:13:55;;;;;;;3.90;3.20;;;5.50;99.90;;;;;;10464451;28;20228;-82
2021/12/07 04:19:02;;;;;;;2.70;2.50;;;5.60;99.90;;;;;;10469804;28;20590;-82
2021/12/07 04:24:07;;;;;;;2.77;2.57;;;5.60;99.90;;;;;;10459256;28;20583;-82
2021/12/07 04:29:09;;;;;;;2.50;2.30;;;5.70;99.90;;;;;;10470166;28;20225;-83
2021/12/07 04:34:11;;;;;;;3.83;3.47;;;5.80;99.90;;;;;;10490238;28;20205;-82
2021/12/07 04:39:15;;;;;;;3.50;3.20;;;5.80;99.90;;;;;;10477776;28;20229;-82
2021/12/07 04:44:17;;;;;;;3.10;2.90;;;5.80;99.90;;;;;;10458840;28;20201;-83
2021/12/07 04:49:48;;;;;;;2.90;2.40;;;5.90;99.90;;;;;;10430147;28;20229;-83
2021/12/07 05:00:16;;;;;;;2.50;2.30;;;6.00;99.90;;;;;;10456809;28;20319;-82
2021/12/07 05:05:19;;;;;;;2.27;2.17;;;6.10;99.90;;;;;;10504717;28;20224;-82
2021/12/07 05:10:30;;;;;;;2.57;2.37;;;6.10;99.90;;;;;;10467394;28;20718;-83
2021/12/07 05:15:55;;;;;;;2.23;2.10;;;6.20;99.90;;;;;;10481491;28;20221;-83
2021/12/07 05:42:14;;;;;;;2.80;2.20;;;5.50;99.90;;;;;;10473216;28;20236;-82
2021/12/07 05:47:16;;;;;;;3.87;2.63;;;5.40;99.90;;;;;;10440297;28;20232;-81
2021/12/07 05:52:18;;;;;;;3.00;2.43;;;5.50;99.90;;;;;;10440304;28;20235;-79
2021/12/07 05:57:22;;;;;;;2.90;2.47;;;5.60;99.90;;;;;;10488312;28;20196;-79
2021/12/07 06:02:24;;;;;;;5.73;2.20;;;5.60;99.90;;;;;;10464455;28;20216;-78
2021/12/07 06:07:26;;;;;;;2.20;2.00;;;5.70;99.90;;;;;;10459789;28;20217;-81
2021/12/07 06:12:30;;;;;;;2.97;2.03;;;5.70;99.90;;;;;;10456802;28;20277;-79
2021/12/07 06:17:32;;;;;;;6.10;2.90;;;5.80;99.90;;;;;;10497710;28;20197;-79
2021/12/07 06:22:34;;;;;;;4.13;2.20;;;5.80;99.90;;;;;;10499032;28;20227;-79
2021/12/07 06:27:38;;;;;;;5.53;2.83;;;5.90;99.90;;;;;;10483346;28;20231;-78
2021/12/07 06:32:41;;;;;;;6.50;2.60;;;6.00;99.90;;;;;;10498986;28;20223;-77
2021/12/07 06:37:43;;;;;;;6.20;2.50;;;6.00;99.90;;;;;;10501458;28;20200;-79
2021/12/07 06:42:46;;;;;;;7.13;2.93;;;6.10;99.90;;;;;;10491072;28;20221;-77
2021/12/07 06:47:48;;;;;;;4.20;2.43;;;6.10;99.90;;;;;;10490971;28;20228;-78
2021/12/07 06:52:52;;;;;;;3.53;3.20;;;6.20;99.90;;;;;;10504552;28;20274;-77
2021/12/07 06:57:55;;;;;;;3.50;2.60;;;6.20;99.90;;;;;;10503762;28;20199;-79
2021/12/07 07:02:57;;;;;;;3.53;3.20;;;6.20;99.90;;;;;;10489157;28;20219;-78
2021/12/07 07:08:01;;;;;;;6.10;3.07;;;6.30;99.90;;;;;;10501917;28;20295;-78
2021/12/07 07:13:05;;;;;;;4.20;3.80;;;6.40;99.90;;;;;;10484651;28;20231;-79
2021/12/07 07:18:07;;;;;;;4.23;3.60;;;6.40;99.90;;;;;;10505000;28;20734;-79
2021/12/07 07:23:09;;;;;;;4.80;3.90;;;6.40;99.90;;;;;;10472930;28;20276;-79
2021/12/07 07:28:13;;;;;;;5.50;2.83;;;6.40;99.90;;;;;;10485343;28;20590;-77
2021/12/07 07:33:15;;;;;;;3.53;2.20;;;6.30;99.90;;;;;;10468744;28;20228;-79
2021/12/07 07:38:17;;;;;;;7.83;3.80;;;6.20;99.90;;;;;;10468715;28;20204;-77
2021/12/07 07:43:21;;;;;;;3.47;3.17;;;6.20;99.90;;;;;;10501520;28;20224;-78
2021/12/07 07:48:41;;;;;;;6.13;3.10;;;6.10;99.90;;;;;;10486773;28;20221;-78
2021/12/07 07:53:43;;;;;;;3.87;2.70;;;6.10;99.90;;;;;;10503175;28;20212;-79
2021/12/07 07:58:47;;;;;;;7.13;3.20;;;6.20;99.90;;;;;;10468301;28;20771;-79
2021/12/07 08:03:49;;;;;;;4.40;3.30;;;6.30;99.90;;;;;;10467660;28;20204;-78
2021/12/07 08:08:51;;;;;;;8.17;3.37;;;6.50;99.90;;;;;;10468026;28;20232;-78
2021/12/07 08:13:55;;;;;;;6.53;3.17;;;6.60;99.90;;;;;;10486101;28;20238;-79
2021/12/07 08:18:59;;;;;;;4.10;3.10;;;6.70;99.90;;;;;;10486241;28;20225;-78
2021/12/07 08:24:05;;;;;;;4.30;3.43;;;6.70;99.90;;;;;;10467803;28;20223;-78
2021/12/07 08:29:08;;;;;;;3.53;2.97;;;6.80;99.90;;;;;;10487636;28;20311;-78
2021/12/07 08:34:11;;;;;;;5.10;3.50;;;6.90;99.90;;;;;;10503434;28;20207;-78
2021/12/07 08:39:15;;;;;;;4.93;3.27;;;6.90;99.90;;;;;;10503895;28;20235;-79
2021/12/07 08:44:18;;;;;;;4.67;3.70;;;6.90;99.90;;;;;;10501482;28;20370;-79
2021/12/07 08:49:21;;;;;;;2.70;2.50;;;7.00;99.90;;;;;;10501564;28;20252;-78
2021/12/07 08:54:33;;;;;;;4.20;3.20;;;7.00;99.90;;;;;;10482087;28;20207;-78
2021/12/07 08:59:40;;;;;;;6.10;3.33;;;7.10;99.90;;;;;;10483401;28;20288;-79
2021/12/07 09:04:42;;;;;;;5.70;2.57;;;7.20;99.90;;;;;;10479574;28;20220;-77
2021/12/07 09:09:44;;;;;;;9.00;5.40;;;7.20;99.90;;;;;;10483656;28;20311;-77
2021/12/07 09:14:52;;;;;;;4.83;3.60;;;7.30;99.90;;;;;;10494583;28;20765;-78
2021/12/07 09:19:54;;;;;;;4.17;3.03;;;7.40;99.90;;;;;;10494514;28;20212;-77
2021/12/07 09:25:03;;;;;;;5.30;2.73;;;7.40;99.90;;;;;;10494888;28;20229;-77
2021/12/07 09:30:12;;;;;;;6.30;3.00;;;7.50;99.90;;;;;;10474332;28;20232;-77
2021/12/07 09:35:16;;;;;;;3.87;2.80;;;7.60;99.90;;;;;;10493652;28;20200;-77
2021/12/07 09:40:19;;;;;;;2.77;2.57;;;7.50;99.90;;;;;;10493841;28;20315;-77
2021/12/07 09:45:25;;;;;;;5.07;3.43;;;7.40;99.90;;;;;;10477431;28;20197;-78
2021/12/07 09:50:28;;;;;;;7.00;2.93;;;7.30;99.90;;;;;;10495013;28;20286;-78
2021/12/07 09:55:30;;;;;;;5.10;2.47;;;7.30;99.90;;;;;;10482316;28;20193;-78
2021/12/07 10:00:34;;;;;;;3.00;2.60;;;7.30;99.90;;;;;;10480633;28;20227;-78
2021/12/07 10:05:40;;;;;;;3.23;2.13;;;7.30;99.90;;;;;;10474333;28;20315;-79
2021/12/07 10:10:45;;;;;;;4.67;2.60;;;7.30;99.90;;;;;;10493337;28;20231;-78
2021/12/07 10:15:54;;;;;;;4.93;2.73;;;7.40;99.90;;;;;;10465602;28;20620;-78
2021/12/07 10:21:00;;;;;;;3.77;2.50;;;7.50;99.90;;;;;;10484611;28;20247;-78
2021/12/07 10:26:09;;;;;;;4.17;2.37;;;7.60;99.90;;;;;;10500411;28;20266;-79
2021/12/07 10:31:22;;;;;;;4.90;2.83;;;7.60;99.90;;;;;;10503046;28;20657;-79
2021/12/07 10:36:26;;;;;;;8.57;2.40;;;7.70;99.90;;;;;;10475266;28;20426;-78
2021/12/07 10:41:33;;;;;;;3.23;2.40;;;7.70;99.90;;;;;;10484329;28;20235;-78
2021/12/07 10:46:46;;;;;;;5.90;2.90;;;7.70;99.90;;;;;;10495747;28;20208;-79
2021/12/07 10:52:19;;;;;;;3.70;2.40;;;7.70;99.90;;;;;;10487246;28;20239;-78
2021/12/07 10:57:24;;;;;;;9.03;2.00;;;7.60;99.90;;;;;;10507222;28;20200;-78
2021/12/07 11:02:33;;;;;;;3.27;2.50;;;7.60;99.90;;;;;;10466020;28;20228;-78
2021/12/07 11:07:36;;;;;;;5.17;2.13;;;7.60;99.90;;;;;;10483764;28;20240;-78
2021/12/07 11:12:47;;;;;;;3.10;2.07;;;7.60;99.90;;;;;;10500169;28;20213;-78
2021/12/07 11:17:52;;;;;;;7.60;4.33;;;7.50;99.90;;;;;;10489374;28;20203;-77
2021/12/07 11:22:58;;;;;;;4.87;1.70;;;7.50;99.90;;;;;;10471892;28;20224;-79
2021/12/07 11:33:27;;;;;;;2.30;1.70;;;7.60;99.90;;;;;;10481029;28;20196;-79
2021/12/07 11:38:30;;;;;;;3.10;2.20;;;7.70;99.90;;;;;;10501300;28;20279;-78
2021/12/07 11:43:32;;;;;;;3.17;1.90;;;7.70;99.90;;;;;;10469243;28;20196;-77
2021/12/07 11:48:37;;;;;;;4.07;2.30;;;7.70;99.90;;;;;;10510136;28;20252;-78
2021/12/07 11:53:39;;;;;;;3.63;2.13;;;7.80;99.90;;;;;;10509511;28;20209;-78
2021/12/07 11:58:41;;;;;;;4.17;3.63;;;7.90;99.20;;;;;;10465127;28;20209;-78
2021/12/07 12:03:45;;;;;;;3.90;2.90;;;7.90;99.20;;;;;;10480952;28;20434;-76
2021/12/07 12:08:49;;;;;;;3.27;2.37;;;7.90;99.60;;;;;;10479889;28;20311;-78
2021/12/07 12:14:01;;;;;;;3.87;2.47;;;7.80;99.00;;;;;;10498085;28;20204;-77
2021/12/07 12:19:16;;;;;;;2.70;2.20;;;7.80;99.90;;;;;;10472601;28;20267;-77
2021/12/07 12:24:30;;;;;;;2.60;2.00;;;7.70;99.90;;;;;;10497429;28;20211;-77
2021/12/07 12:29:35;;;;;;;2.50;2.20;;;7.70;99.90;;;;;;10478051;28;20228;-77
2021/12/07 12:34:47;;;;;;;5.53;2.50;;;7.70;99.90;;;;;;10461379;28;20208;-77
2021/12/07 12:39:53;;;;;;;4.43;2.40;;;7.70;99.70;;;;;;10477612;28;20238;-78
2021/12/07 12:45:03;;;;;;;4.67;2.30;;;7.70;99.50;;;;;;10497045;28;20688;-79
2021/12/07 12:50:20;;;;;;;3.20;2.20;;;7.80;99.70;;;;;;10502345;28;20311;-79
2021/12/07 12:55:45;;;;;;;3.63;1.90;;;7.90;99.90;;;;;;10507497;28;20257;-77
2021/12/07 13:01:12;;;;;;;4.10;1.97;;;8.00;99.90;;;;;;10474606;28;20231;-79
2021/12/07 13:06:18;;;;;;;3.73;2.90;;;8.10;99.90;;;;;;10440515;28;20234;-78
2021/12/07 13:11:34;;;;;;;3.37;2.20;;;8.20;98.90;;;;;;10478608;28;20244;-79
2021/12/07 13:16:39;;;;;;;5.60;2.20;;;8.20;95.80;;;;;;10480232;28;20202;-80
2021/12/07 13:21:44;;;;;;;3.90;2.40;;;8.20;98.60;;;;;;10500675;28;20234;-80
2021/12/07 13:26:52;;;;;;;3.23;2.40;;;8.20;99.00;;;;;;10501640;28;20208;-79
2021/12/07 13:31:57;;;;;;;2.67;2.10;;;8.20;96.90;;;;;;10492511;28;20232;-78
2021/12/07 13:37:03;;;;;;;4.77;2.57;;;8.20;96.50;;;;;;10467157;28;20572;-80
2021/12/07 13:42:10;;;;;;;3.20;2.20;;;8.10;97.00;;;;;;10499659;28;20776;-79
2021/12/07 13:47:14;;;;;;;7.33;2.60;;;7.90;97.60;;;;;;10480422;28;20219;-80
2021/12/07 13:52:20;;;;;;;2.90;2.20;;;7.90;98.90;;;;;;10481118;28;20231;-79
2021/12/07 13:57:25;;;;;;;3.17;2.13;;;7.80;99.80;;;;;;10484869;28;20624;-79
2021/12/07 14:02:28;;;;;;;4.23;2.70;;;7.80;97.80;;;;;;10483530;28;20238;-79
2021/12/07 14:07:33;;;;;;;6.87;2.97;;;7.70;98.70;;;;;;10481872;28;21165;-79
2021/12/07 14:12:36;;;;;;;3.13;2.00;;;7.60;98.60;;;;;;10466615;28;20232;-79
2021/12/07 14:17:43;;;;;;;3.00;2.70;;;7.50;99.00;;;;;;10482186;28;20216;-79
2021/12/07 14:22:47;;;;;;;4.50;2.73;;;7.50;99.90;;;;;;10481224;28;20220;-79
2021/12/07 14:27:49;;;;;;;2.67;2.47;;;7.50;98.00;;;;;;10487221;28;20213;-79
2021/12/07 14:32:52;;;;;;;4.87;2.03;;;7.40;99.20;;;;;;10463692;28;20278;-79
2021/12/07 14:37:55;;;;;;;2.77;2.40;;;7.40;98.50;;;;;;10464838;28;20201;-78
2021/12/07 14:43:00;;;;;;;7.73;2.80;;;7.20;98.10;;;;;;10478153;28;20233;-78
2021/12/07 14:48:02;;;;;;;5.40;2.53;;;7.20;99.20;;;;;;10475323;28;20255;-79
2021/12/07 14:53:06;;;;;;;7.23;2.63;;;7.10;99.80;;;;;;10493812;28;20711;-78
2021/12/07 14:58:08;;;;;;;4.70;3.53;;;7.00;99.90;;;;;;10466916;28;20201;-79
2021/12/07 15:03:10;;;;;;;6.50;4.67;;;7.00;99.40;;;;;;10483058;28;20222;-79
2021/12/07 15:08:13;;;;;;;6.43;3.20;;;7.00;98.50;;;;;;10494385;28;20286;-78
2021/12/07 15:13:15;;;;;;;3.57;2.40;;;6.80;99.50;;;;;;10489359;28;20248;-79
2021/12/07 15:18:17;;;;;;;4.00;2.80;;;6.70;99.70;;;;;;10507458;28;20261;-79
2021/12/07 15:23:21;;;;;;;6.53;3.07;;;6.50;98.70;;;;;;10494840;28;20217;-79
2021/12/07 15:28:24;;;;;;;6.17;3.73;;;6.40;99.80;;;;;;10505957;28;20319;-79
2021/12/07 15:33:28;;;;;;;6.47;4.50;;;6.20;99.30;;;;;;10488735;28;20218;-78
2021/12/07 15:38:31;;;;;;;9.93;5.10;;;6.10;99.90;;;;;;10471506;28;20257;-77
2021/12/07 15:43:34;;;;;;;4.87;4.47;;;6.00;99.90;;;;;;10490742;28;20203;-78
2021/12/07 15:48:36;;;;;;;4.37;3.20;;;5.90;99.90;;;;;;10510615;28;20224;-79
2021/12/07 15:53:40;;;;;;;4.70;3.43;;;5.80;99.90;;;;;;10475381;28;20235;-78
2021/12/07 15:58:43;;;;;;;4.20;3.23;;;5.80;99.90;;;;;;10487794;28;20197;-77
2021/12/07 16:03:47;;;;;;;6.33;3.20;;;5.70;99.90;;;;;;10484642;28;20584;-78
2021/12/07 16:08:51;;;;;;;3.63;3.13;;;5.70;99.90;;;;;;10484438;28;20607;-78
2021/12/07 16:13:57;;;;;;;6.77;3.27;;;5.60;99.90;;;;;;10502493;28;20279;-78
2021/12/07 16:19:00;;;;;;;3.90;2.90;;;5.50;99.90;;;;;;10503104;28;20212;-78
2021/12/07 16:24:07;;;;;;;3.73;3.43;;;5.50;99.90;;;;;;10515641;28;20680;-79
2021/12/07 16:29:09;;;;;;;3.67;3.20;;;5.40;99.90;;;;;;10483227;28;20289;-79
2021/12/07 16:34:12;;;;;;;5.70;5.20;;;5.40;99.90;;;;;;10502334;28;20251;-77
2021/12/07 16:39:15;;;;;;;4.27;3.87;;;5.30;99.90;;;;;;10483099;28;20277;-79
2021/12/07 16:44:17;;;;;;;7.70;4.73;;;5.30;99.90;;;;;;10475324;28;20224;-78
2021/12/07 16:49:20;;;;;;;7.43;4.90;;;5.20;99.90;;;;;;10483034;28;20252;-77
2021/12/07 16:54:24;;;;;;;6.57;4.40;;;5.10;99.90;;;;;;10479952;28;20629;-79
2021/12/07 16:59:26;;;;;;;5.00;3.97;;;5.10;99.90;;;;;;10480986;28;20220;-78
2021/12/07 17:04:28;;;;;;;4.83;3.10;;;5.10;99.90;;;;;;10476353;28;20197;-78
2021/12/07 17:09:32;;;;;;;5.17;3.87;;;5.00;99.90;;;;;;10480051;28;20285;-78
2021/12/07 17:14:36;;;;;;;4.27;3.80;;;5.00;99.90;;;;;;10484361;28;20287;-79
2021/12/07 17:19:38;;;;;;;7.77;4.70;;;5.00;99.90;;;;;;10476676;28;20205;-79
2021/12/07 17:24:42;;;;;;;8.20;4.40;;;5.10;99.90;;;;;;10493715;28;20211;-79
2021/12/07 17:29:44;;;;;;;7.60;3.83;;;5.10;99.90;;;;;;10478578;28;20311;-79
2021/12/07 17:34:46;;;;;;;9.13;3.90;;;5.20;99.90;;;;;;10480467;28;20204;-79
2021/12/07 17:39:50;;;;;;;6.10;4.30;;;5.20;99.90;;;;;;10496735;28;20712;-78
2021/12/07 17:44:53;;;;;;;7.10;4.17;;;5.20;99.90;;;;;;10472635;28;20203;-79
2021/12/07 17:49:55;;;;;;;10.53;5.57;;;5.30;99.90;;;;;;10477380;28;20703;-78
2021/12/07 17:54:59;;;;;;;7.60;6.00;;;5.30;99.90;;;;;;10473405;28;20233;-77
2021/12/07 18:00:01;;;;;;;7.00;4.70;;;5.30;99.90;;;;;;10475883;28;20303;-78
2021/12/07 18:05:03;;;;;;;8.93;4.67;;;5.30;99.60;;;;;;10496568;28;20238;-79
2021/12/07 18:10:07;;;;;;;6.23;5.60;;;5.20;99.90;;;;;;10479669;28;20258;-78
2021/12/07 18:15:12;;;;;;;8.67;4.43;;;5.30;99.90;;;;;;10497169;28;20201;-79
2021/12/07 18:20:17;;;;;;;6.83;5.80;;;5.30;99.90;;;;;;10497019;28;20243;-79
2021/12/07 18:25:21;;;;;;;7.47;6.53;;;5.30;99.90;;;;;;10496586;28;20200;-79
2021/12/07 18:30:29;;;;;;;7.03;5.70;;;5.30;99.90;;;;;;10468953;28;20236;-78
2021/12/07 18:35:31;;;;;;;9.33;5.73;;;5.40;99.90;;;;;;10505233;28;20204;-79
2021/12/07 18:40:36;;;;;;;5.63;4.87;;;5.40;99.90;;;;;;10504889;28;20238;-79
2021/12/07 18:45:39;;;;;;;7.93;6.87;;;5.50;99.90;;;;;;10507395;28;20300;-79
2021/12/07 18:50:42;;;;;;;7.27;6.10;;;5.50;99.90;;;;;;10470637;28;20795;-78
2021/12/07 18:55:46;;;;;;;7.27;6.07;;;5.60;99.90;;;;;;10504238;28;20222;-79
2021/12/07 19:00:51;;;;;;;8.77;7.23;;;5.60;99.90;;;;;;10488940;28;20229;-79
2021/12/07 19:05:53;;;;;;;8.17;7.23;;;5.60;99.90;;;;;;10487090;28;20197;-77
2021/12/07 19:10:57;;;;;;;11.83;8.77;;;5.60;99.90;;;;;;10486299;28;20549;-77
2021/12/07 19:16:00;;;;;;;18.83;15.50;;;5.70;99.90;;;;;;10504107;28;20728;-77
2021/12/07 19:21:02;;;;;;;14.90;13.40;;;5.70;99.90;;;;;;10496806;28;20220;-78
2021/12/07 19:26:06;;;;;;;12.17;8.13;;;5.70;99.90;;;;;;10485304;28;20193;-78
2021/12/07 19:31:08;;;;;;;6.33;5.83;;;5.60;99.90;;;;;;10491078;28;20603;-79
2021/12/07 19:36:11;;;;;;;8.10;7.30;;;5.60;99.90;;;;;;10483949;28;20200;-79
2021/12/07 19:41:15;;;;;;;6.17;5.60;;;5.60;99.90;;;;;;10482559;28;20220;-78
2021/12/07 19:46:18;;;;;;;5.73;5.13;;;5.70;99.90;;;;;;10483363;28;20254;-79
2021/12/07 19:51:22;;;;;;;7.17;4.43;;;5.70;99.90;;;;;;10502776;28;20288;-79
2021/12/07 19:56:29;;;;;;;4.17;3.77;;;5.70;99.90;;;;;;10503023;28;20205;-79
2021/12/07 20:01:31;;;;;;;5.90;4.83;;;5.70;99.90;;;;;;10500208;28;20712;-77
2021/12/07 20:06:35;;;;;;;5.13;4.63;;;5.60;99.90;;;;;;10484868;28;20219;-79
2021/12/07 20:11:39;;;;;;;7.77;5.20;;;5.60;99.90;;;;;;10500524;28;20281;-77
2021/12/07 20:16:41;;;;;;;5.67;4.30;;;5.60;99.50;;;;;;10498634;28;20626;-80
2021/12/07 20:21:44;;;;;;;7.80;3.60;;;5.40;99.70;;;;;;10480166;28;20217;-81
2021/12/07 20:26:47;;;;;;;5.73;4.20;;;5.40;99.90;;;;;;10504994;28;20687;-77
2021/12/07 20:31:52;;;;;;;4.20;3.87;;;5.30;99.90;;;;;;10479879;28;20231;-79
2021/12/07 20:36:54;;;;;;;4.50;4.10;;;5.30;99.90;;;;;;10498882;28;20265;-80
2021/12/07 20:41:58;;;;;;;5.43;4.50;;;5.40;98.50;;;;;;10459489;28;20938;-79
2021/12/07 20:47:00;;;;;;;6.47;4.90;;;5.30;98.40;;;;;;10475524;28;20728;-80
2021/12/07 20:52:06;;;;;;;4.07;3.73;;;5.30;98.50;;;;;;10498700;28;20300;-79
2021/12/07 20:57:09;;;;;;;11.80;5.27;;;5.20;99.20;;;;;;10485065;28;20288;-81
2021/12/07 21:02:11;;;;;;;5.37;4.90;;;5.20;97.70;;;;;;10488117;28;20224;-80
2021/12/07 21:07:14;;;;;;;7.37;6.63;;;5.20;99.10;;;;;;10436194;28;20212;-80
2021/12/07 21:12:18;;;;;;;6.13;5.27;;;5.20;99.30;;;;;;10498823;28;20304;-80
2021/12/07 21:17:20;;;;;;;6.73;5.27;;;5.30;98.00;;;;;;10493066;28;20203;-80
2021/12/07 21:22:22;;;;;;;5.97;5.37;;;5.30;97.90;;;;;;10485039;28;20298;-80
2021/12/07 21:27:26;;;;;;;7.20;5.50;;;5.20;99.90;;;;;;10463813;28;20204;-79
2021/12/07 21:32:28;;;;;;;6.47;5.13;;;5.20;99.50;;;;;;10474069;28;20703;-79
2021/12/07 21:37:30;;;;;;;7.20;5.10;;;5.20;99.90;;;;;;10507892;28;20640;-80
2021/12/07 21:42:34;;;;;;;6.50;5.70;;;5.30;99.90;;;;;;10489295;28;20228;-81
2021/12/07 21:47:37;;;;;;;5.90;5.30;;;5.40;99.90;;;;;;10447573;28;20295;-80
2021/12/07 21:52:40;;;;;;;9.80;6.20;;;5.50;99.90;;;;;;10452825;28;20305;-80
2021/12/07 21:57:43;;;;;;;6.73;5.67;;;5.50;99.90;;;;;;10467353;28;20208;-81
2021/12/07 22:02:46;;;;;;;8.30;5.00;;;5.50;99.90;;;;;;10479520;28;20256;-80
2021/12/07 22:07:49;;;;;;;6.47;5.40;;;5.60;99.90;;;;;;10463700;28;20267;-80
2021/12/07 22:12:54;;;;;;;5.60;5.10;;;5.60;99.90;;;;;;10460276;28;20231;-80
2021/12/07 22:17:56;;;;;;;6.17;5.63;;;5.60;99.90;;;;;;10481045;28;20204;-80
2021/12/07 22:22:58;;;;;;;6.03;5.43;;;5.60;99.90;;;;;;10468185;28;20266;-80
2021/12/07 22:28:01;;;;;;;9.90;5.40;;;5.60;99.90;;;;;;10484380;28;20207;-80
2021/12/07 22:33:04;;;;;;;6.43;5.50;;;5.60;99.60;;;;;;10505827;28;20685;-79
2021/12/07 22:38:07;;;;;;;5.97;5.30;;;5.60;99.20;;;;;;10475840;28;20204;-80
2021/12/07 22:43:12;;;;;;;6.33;5.70;;;5.50;99.20;;;;;;10490810;28;20734;-79
2021/12/07 22:48:17;;;;;;;7.73;6.37;;;5.40;99.90;;;;;;10500934;28;20323;-80
2021/12/07 22:53:19;;;;;;;7.23;6.10;;;5.30;99.90;;;;;;10469339;28;20221;-81
2021/12/07 22:58:25;;;;;;;5.53;5.00;;;5.40;99.90;;;;;;10468168;28;20220;-80
2021/12/07 23:03:29;;;;;;;6.40;5.80;;;5.30;99.60;;;;;;10470622;28;20220;-79
2021/12/07 23:08:31;;;;;;;5.53;5.03;;;5.30;98.90;;;;;;10486243;28;20581;-80
2021/12/07 23:13:36;;;;;;;6.93;5.93;;;5.30;99.90;;;;;;10470179;28;20281;-80
2021/12/07 23:18:40;;;;;;;6.53;5.20;;;5.20;99.70;;;;;;10487438;28;20567;-78
2021/12/07 23:23:42;;;;;;;7.40;5.30;;;5.20;99.90;;;;;;10442182;28;20207;-80
2021/12/07 23:28:46;;;;;;;5.60;5.10;;;5.10;99.90;;;;;;10459468;28;20240;-79
2021/12/07 23:33:48;;;;;;;4.93;4.53;;;5.10;99.90;;;;;;10478734;28;20212;-80
2021/12/07 23:38:54;;;;;;;4.83;4.43;;;5.20;99.90;;;;;;10481534;28;20704;-81
2021/12/07 23:43:57;;;;;;;5.20;4.80;;;5.30;99.90;;;;;;10460261;28;20204;-80
2021/12/07 23:49:00;;;;;;;3.77;3.47;;;5.40;99.90;;;;;;10477349;28;20220;-81
2021/12/07 23:54:02;;;;;;;4.77;4.03;;;5.50;99.40;;;;;;10490524;28;20189;-79
2021/12/07 23:59:05;;;;;;;4.13;3.77;;;5.60;98.20;;;;;;10470194;28;20273;-81
